Time;durP1;ratioP1;P1;durP2;ratioP2;P2;SDS_P1;SDS_P2;PMS_P1;PMS_P2;Temp;Humidity;BMP_temperature;BMP_pressure;BME280_temperature;BME280_humidity;BME280_pressure;Samples;Min_cycle;Max_cycle;Signal;HPM_P1;HPM_P2
2023/10/31 00:01:57;;;;;;;7.00;5.43;;;12.10;99.90;;;;;;5003181;28;21211;-65
2023/10/31 00:04:26;;;;;;;9.07;6.17;;;12.00;99.90;;;;;;5002342;28;20583;-65
2023/10/31 00:06:54;;;;;;;5.70;5.20;;;12.00;99.90;;;;;;5005178;28;20464;-66
2023/10/31 00:09:22;;;;;;;5.40;5.00;;;12.10;99.90;;;;;;5003579;28;20844;-65
2023/10/31 00:11:50;;;;;;;6.40;5.80;;;12.10;99.90;;;;;;4990865;28;20496;-65
2023/10/31 00:14:19;;;;;;;6.63;5.70;;;12.10;99.90;;;;;;4999866;28;20587;-65
2023/10/31 00:16:58;;;;;;;6.57;5.70;;;12.10;99.90;;;;;;5001781;28;21020;-66
2023/10/31 00:19:26;;;;;;;6.20;5.27;;;12.10;99.90;;;;;;5005255;28;20472;-65
2023/10/31 00:21:54;;;;;;;6.27;5.60;;;12.10;99.90;;;;;;5000584;28;20512;-66
2023/10/31 00:24:22;;;;;;;6.40;5.63;;;12.00;99.90;;;;;;5005129;28;20472;-65
2023/10/31 00:26:50;;;;;;;5.90;5.40;;;12.10;99.90;;;;;;4994505;28;20571;-65
2023/10/31 00:29:20;;;;;;;7.93;5.50;;;12.10;99.90;;;;;;4999832;28;20559;-65
2023/10/31 00:31:47;;;;;;;9.10;5.07;;;12.00;99.90;;;;;;5002799;28;20877;-66
2023/10/31 00:34:15;;;;;;;6.27;5.70;;;12.10;99.90;;;;;;5001939;28;20488;-65
2023/10/31 00:36:44;;;;;;;6.13;5.40;;;12.10;99.90;;;;;;5004474;28;20609;-66
2023/10/31 00:39:12;;;;;;;5.90;5.20;;;12.10;99.90;;;;;;5005608;28;20475;-66
2023/10/31 00:41:40;;;;;;;5.80;5.20;;;12.10;99.90;;;;;;5006679;28;20563;-65
2023/10/31 00:44:08;;;;;;;5.63;5.03;;;12.10;99.90;;;;;;5007910;28;21096;-65
2023/10/31 00:46:37;;;;;;;6.10;5.50;;;12.10;99.90;;;;;;5007883;28;20475;-65
2023/10/31 00:49:05;;;;;;;6.50;5.90;;;12.10;99.90;;;;;;5008467;28;20479;-65
2023/10/31 00:51:33;;;;;;;5.70;5.20;;;12.10;99.90;;;;;;5006208;28;21016;-65
2023/10/31 00:54:01;;;;;;;5.20;4.80;;;12.10;99.90;;;;;;5007601;28;20518;-69
2023/10/31 00:56:29;;;;;;;5.50;5.00;;;12.10;99.90;;;;;;5004868;28;20536;-64
2023/10/31 00:58:57;;;;;;;6.10;5.50;;;12.10;99.90;;;;;;5007137;28;20935;-63
2023/10/31 01:01:25;;;;;;;6.00;5.50;;;12.10;99.90;;;;;;5005592;28;20464;-65
2023/10/31 01:03:55;;;;;;;6.10;5.50;;;12.10;99.90;;;;;;5009055;28;20538;-65
2023/10/31 01:06:23;;;;;;;6.30;5.70;;;12.10;99.90;;;;;;5006116;28;20547;-65
2023/10/31 01:08:50;;;;;;;6.40;5.80;;;12.10;99.90;;;;;;5007535;28;20477;-65
2023/10/31 01:11:18;;;;;;;6.13;5.53;;;12.10;99.90;;;;;;5007393;28;21000;-65
2023/10/31 01:13:46;;;;;;;6.97;6.27;;;12.10;99.90;;;;;;5006666;28;20492;-66
2023/10/31 01:16:14;;;;;;;6.83;5.80;;;12.10;99.90;;;;;;5008579;28;20604;-66
2023/10/31 01:18:42;;;;;;;6.90;6.30;;;12.20;99.90;;;;;;5007730;28;21053;-66
2023/10/31 01:21:12;;;;;;;6.53;5.93;;;12.20;99.90;;;;;;5009513;28;20467;-65
2023/10/31 01:23:40;;;;;;;7.17;6.43;;;12.10;99.90;;;;;;5006649;28;20542;-66
2023/10/31 01:26:08;;;;;;;8.37;7.60;;;12.10;99.90;;;;;;5007633;28;20476;-66
2023/10/31 01:28:36;;;;;;;7.93;7.20;;;12.10;99.90;;;;;;5001947;28;20582;-66
2023/10/31 01:31:04;;;;;;;8.40;7.70;;;12.20;99.90;;;;;;5007881;28;20475;-66
2023/10/31 01:33:32;;;;;;;8.67;7.73;;;12.20;99.90;;;;;;5004669;28;20581;-64
2023/10/31 01:35:59;;;;;;;9.80;7.70;;;12.20;99.90;;;;;;5005801;28;20958;-65
2023/10/31 01:38:28;;;;;;;9.47;8.47;;;12.20;99.90;;;;;;5008035;28;20963;-66
2023/10/31 01:40:56;;;;;;;9.70;8.80;;;12.20;99.90;;;;;;5006629;28;21113;-64
2023/10/31 01:43:31;;;;;;;10.33;9.43;;;12.20;99.90;;;;;;5005401;28;22488;-65
2023/10/31 01:46:00;;;;;;;11.37;10.20;;;12.20;99.90;;;;;;5004708;28;20542;-66
2023/10/31 01:48:30;;;;;;;9.87;8.97;;;12.10;99.90;;;;;;5006102;28;20555;-66
2023/10/31 01:51:00;;;;;;;9.43;8.70;;;12.20;99.90;;;;;;5006853;28;20479;-66
2023/10/31 01:53:31;;;;;;;11.00;8.70;;;12.20;99.90;;;;;;5007145;28;20922;-65
2023/10/31 01:56:01;;;;;;;10.40;9.40;;;12.20;99.90;;;;;;5005272;28;20495;-65
2023/10/31 01:58:32;;;;;;;9.47;8.67;;;12.20;99.90;;;;;;5005831;28;20465;-64
2023/10/31 02:01:01;;;;;;;10.37;9.47;;;12.20;99.90;;;;;;5005122;28;20974;-65
2023/10/31 02:03:29;;;;;;;11.20;10.10;;;12.10;99.90;;;;;;5003511;28;20487;-66
2023/10/31 02:05:58;;;;;;;10.73;9.77;;;12.10;99.90;;;;;;4998449;28;20512;-63
2023/10/31 02:08:26;;;;;;;10.60;9.50;;;12.10;99.90;;;;;;4999020;28;20472;-65
2023/10/31 02:10:55;;;;;;;11.07;9.20;;;12.10;99.90;;;;;;5005657;28;20480;-66
2023/10/31 02:13:23;;;;;;;11.20;10.10;;;12.10;99.90;;;;;;5004020;28;20481;-66
2023/10/31 02:15:51;;;;;;;10.73;9.57;;;12.10;99.90;;;;;;5006553;28;21021;-65
2023/10/31 02:18:19;;;;;;;10.77;9.50;;;12.10;99.90;;;;;;5005807;28;20475;-65
2023/10/31 02:20:48;;;;;;;10.43;9.50;;;12.10;99.90;;;;;;5005030;28;20483;-66
2023/10/31 02:23:18;;;;;;;9.87;9.07;;;12.10;99.90;;;;;;4999383;28;20488;-65
2023/10/31 02:25:46;;;;;;;12.47;9.37;;;12.10;99.90;;;;;;5004114;28;20476;-67
2023/10/31 02:28:14;;;;;;;9.90;9.00;;;12.10;99.90;;;;;;5000491;28;21412;-64
2023/10/31 02:30:42;;;;;;;11.63;8.47;;;12.10;99.90;;;;;;5002464;28;20844;-66
2023/10/31 02:33:10;;;;;;;10.40;9.50;;;12.10;99.90;;;;;;5005051;28;20480;-65
2023/10/31 02:35:38;;;;;;;10.10;9.20;;;12.10;99.90;;;;;;5005553;28;20480;-66
2023/10/31 02:38:06;;;;;;;10.40;9.40;;;12.10;99.90;;;;;;5005381;28;20496;-66
2023/10/31 02:40:35;;;;;;;11.40;10.30;;;12.00;99.90;;;;;;5003051;28;20476;-65
2023/10/31 02:43:03;;;;;;;10.70;9.80;;;12.10;99.90;;;;;;5005429;28;21069;-65
2023/10/31 02:45:31;;;;;;;11.33;10.23;;;12.10;99.90;;;;;;5006092;28;20499;-65
2023/10/31 02:47:59;;;;;;;9.93;9.03;;;12.10;99.90;;;;;;5003630;28;20472;-66
2023/10/31 02:50:28;;;;;;;11.40;10.30;;;12.10;99.90;;;;;;5003622;28;20527;-65
2023/10/31 02:52:55;;;;;;;10.13;9.17;;;12.10;99.90;;;;;;5000751;28;20538;-66
2023/10/31 02:55:24;;;;;;;10.33;9.33;;;12.10;99.90;;;;;;5003172;28;20523;-66
2023/10/31 02:57:53;;;;;;;10.70;9.70;;;12.10;99.90;;;;;;5002415;28;20583;-66
2023/10/31 03:00:21;;;;;;;11.00;10.00;;;12.10;99.90;;;;;;5001157;28;20507;-65
2023/10/31 03:02:49;;;;;;;10.80;9.80;;;12.10;99.90;;;;;;5001737;28;20770;-65
2023/10/31 03:05:17;;;;;;;11.13;10.17;;;12.10;99.90;;;;;;5003473;28;20480;-65
2023/10/31 03:07:46;;;;;;;10.70;9.70;;;12.10;99.90;;;;;;5003949;28;20472;-65
2023/10/31 03:10:13;;;;;;;15.17;10.70;;;12.10;99.90;;;;;;5002318;28;21041;-66
2023/10/31 03:12:42;;;;;;;12.03;10.50;;;12.10;99.90;;;;;;5003035;28;20498;-66
2023/10/31 03:15:12;;;;;;;11.07;10.07;;;12.10;99.90;;;;;;5002218;28;20571;-65
2023/10/31 03:17:40;;;;;;;11.63;10.57;;;12.10;99.90;;;;;;5000495;28;20591;-66
2023/10/31 03:20:09;;;;;;;11.20;10.20;;;12.10;99.90;;;;;;5003340;28;20546;-66
2023/10/31 03:22:37;;;;;;;10.90;9.90;;;12.10;99.90;;;;;;5003470;28;20492;-65
2023/10/31 03:25:06;;;;;;;11.07;9.97;;;12.10;99.90;;;;;;5005065;28;20488;-64
2023/10/31 03:27:34;;;;;;;10.57;9.77;;;12.10;99.90;;;;;;4998300;28;20504;-65
2023/10/31 03:30:02;;;;;;;11.33;10.33;;;12.20;99.90;;;;;;5004976;28;20563;-65
2023/10/31 03:32:31;;;;;;;11.00;10.00;;;12.20;99.90;;;;;;5002244;28;21060;-65
2023/10/31 03:34:59;;;;;;;10.30;9.40;;;12.20;99.90;;;;;;5002276;28;20488;-65
2023/10/31 03:37:27;;;;;;;11.20;10.17;;;12.20;99.90;;;;;;5005349;28;20667;-65
2023/10/31 03:39:55;;;;;;;10.77;9.70;;;12.10;99.90;;;;;;5005164;28;21053;-65
2023/10/31 03:42:23;;;;;;;10.93;9.83;;;12.20;99.90;;;;;;5002005;28;20488;-65
2023/10/31 03:44:51;;;;;;;10.30;9.40;;;12.20;99.90;;;;;;5005306;28;20563;-65
2023/10/31 03:47:19;;;;;;;9.93;9.03;;;12.20;99.90;;;;;;5005183;28;20563;-64
2023/10/31 03:49:48;;;;;;;11.50;9.80;;;12.10;99.90;;;;;;5002887;28;20487;-65
2023/10/31 03:52:16;;;;;;;9.33;8.53;;;12.10;99.90;;;;;;5006042;28;20496;-65
2023/10/31 03:54:44;;;;;;;9.67;8.80;;;12.20;99.90;;;;;;5003858;28;20867;-66
2023/10/31 03:57:12;;;;;;;9.53;8.67;;;12.10;99.90;;;;;;5004245;28;23574;-65
2023/10/31 03:59:40;;;;;;;8.53;7.83;;;12.10;99.90;;;;;;5005813;28;20966;-64
2023/10/31 04:02:08;;;;;;;9.17;8.27;;;12.20;99.90;;;;;;5002348;28;20584;-66
2023/10/31 04:04:36;;;;;;;9.43;8.63;;;12.20;99.90;;;;;;5005719;28;20476;-65
2023/10/31 04:07:05;;;;;;;9.30;8.37;;;12.20;99.90;;;;;;5007395;28;21039;-65
2023/10/31 04:09:33;;;;;;;9.10;8.30;;;12.20;99.90;;;;;;5005619;28;20917;-66
2023/10/31 04:12:01;;;;;;;8.67;7.97;;;12.10;99.90;;;;;;4998870;28;21004;-65
2023/10/31 04:14:29;;;;;;;8.83;8.03;;;12.10;99.90;;;;;;5007343;28;20486;-66
2023/10/31 04:16:57;;;;;;;9.00;8.17;;;12.20;99.90;;;;;;5008496;28;20902;-64
2023/10/31 04:19:25;;;;;;;9.83;8.80;;;12.20;99.90;;;;;;5004664;28;20979;-63
2023/10/31 04:21:55;;;;;;;8.57;7.67;;;12.20;99.90;;;;;;5002864;28;20490;-66
2023/10/31 04:24:24;;;;;;;8.10;7.40;;;12.10;99.90;;;;;;5004985;28;21077;-65
2023/10/31 04:26:52;;;;;;;9.30;8.40;;;12.10;99.90;;;;;;5004875;28;20548;-65
2023/10/31 04:29:20;;;;;;;8.73;7.90;;;12.10;99.90;;;;;;4998518;28;20471;-66
2023/10/31 04:31:48;;;;;;;10.20;8.67;;;12.20;99.90;;;;;;5005507;28;20500;-65
2023/10/31 04:34:16;;;;;;;8.00;7.30;;;12.20;99.90;;;;;;5005410;28;20674;-66
2023/10/31 04:36:44;;;;;;;8.00;7.20;;;12.20;99.90;;;;;;5008502;28;20495;-66
2023/10/31 04:39:12;;;;;;;10.10;7.67;;;12.20;99.90;;;;;;5007236;28;20498;-66
2023/10/31 04:41:41;;;;;;;8.60;7.80;;;12.20;99.90;;;;;;5007400;28;20499;-66
2023/10/31 04:44:09;;;;;;;8.07;7.27;;;12.20;99.90;;;;;;5006045;28;20483;-64
2023/10/31 04:46:37;;;;;;;9.40;8.50;;;12.20;99.90;;;;;;5007656;28;20937;-66
2023/10/31 04:49:05;;;;;;;8.30;7.47;;;12.20;99.90;;;;;;5002057;28;20855;-66
2023/10/31 04:51:37;;;;;;;8.37;7.57;;;12.20;99.90;;;;;;5009828;28;20471;-66
2023/10/31 04:54:06;;;;;;;8.47;7.50;;;12.20;99.90;;;;;;5007719;28;20994;-63
2023/10/31 04:56:34;;;;;;;7.90;7.10;;;12.20;99.90;;;;;;5006661;28;20487;-66
2023/10/31 04:59:04;;;;;;;7.60;6.90;;;12.20;99.90;;;;;;5007330;28;20527;-66
2023/10/31 05:01:32;;;;;;;8.63;7.73;;;12.20;99.90;;;;;;5008201;28;21018;-66
2023/10/31 05:04:00;;;;;;;8.10;7.30;;;12.20;99.90;;;;;;5006973;28;21038;-66
2023/10/31 05:06:40;;;;;;;7.67;6.83;;;12.30;99.90;;;;;;5008598;28;20586;-66
2023/10/31 05:09:08;;;;;;;7.17;6.50;;;12.30;99.90;;;;;;5006540;28;20916;-66
2023/10/31 05:11:36;;;;;;;8.20;7.50;;;12.30;99.90;;;;;;5006573;28;20484;-66
2023/10/31 05:14:06;;;;;;;7.20;6.60;;;12.30;99.90;;;;;;5004785;28;20480;-65
2023/10/31 05:16:40;;;;;;;7.60;6.90;;;12.30;99.90;;;;;;5007490;28;20472;-66
2023/10/31 05:19:08;;;;;;;7.40;6.57;;;12.30;99.90;;;;;;5007397;28;20583;-66
2023/10/31 05:21:36;;;;;;;7.90;7.10;;;12.30;99.90;;;;;;5007145;28;20468;-66
2023/10/31 05:24:05;;;;;;;8.03;7.33;;;12.40;99.90;;;;;;5004256;28;20876;-66
2023/10/31 05:26:33;;;;;;;7.00;6.40;;;12.40;99.90;;;;;;5004063;28;20568;-65
2023/10/31 05:29:01;;;;;;;8.20;7.40;;;12.40;99.90;;;;;;5005445;28;20546;-65
2023/10/31 05:31:31;;;;;;;8.30;7.50;;;12.40;99.90;;;;;;5008337;28;21059;-66
2023/10/31 05:33:59;;;;;;;7.63;6.93;;;12.40;99.90;;;;;;5006331;28;20472;-66
2023/10/31 05:36:27;;;;;;;7.43;6.57;;;12.40;99.90;;;;;;5007401;28;20472;-66
2023/10/31 05:38:55;;;;;;;8.67;7.80;;;12.40;99.90;;;;;;5007160;28;21010;-65
2023/10/31 05:41:23;;;;;;;7.40;6.70;;;12.40;99.90;;;;;;5004831;28;20563;-66
2023/10/31 05:43:51;;;;;;;8.50;7.23;;;12.40;99.90;;;;;;5006491;28;20547;-66
2023/10/31 05:46:20;;;;;;;10.17;7.90;;;12.40;99.90;;;;;;5007204;28;20468;-66
2023/10/31 05:48:50;;;;;;;8.87;8.00;;;12.40;99.90;;;;;;5006403;28;20511;-66
2023/10/31 05:51:19;;;;;;;9.17;8.37;;;12.40;99.90;;;;;;5007460;28;20560;-66
2023/10/31 05:53:49;;;;;;;9.30;8.30;;;12.40;99.90;;;;;;5004028;28;20527;-65
2023/10/31 05:56:17;;;;;;;8.30;7.50;;;12.40;99.90;;;;;;5008050;28;21527;-66
2023/10/31 05:58:45;;;;;;;8.87;7.87;;;12.40;99.90;;;;;;5004282;28;20550;-66
2023/10/31 06:01:13;;;;;;;9.23;7.90;;;12.40;99.90;;;;;;5006275;28;20587;-65
2023/10/31 06:03:43;;;;;;;8.60;7.80;;;12.40;99.90;;;;;;5005827;28;20579;-66
2023/10/31 06:06:13;;;;;;;8.90;8.00;;;12.40;99.90;;;;;;5004665;28;20476;-65
2023/10/31 06:08:42;;;;;;;9.10;8.20;;;12.40;99.90;;;;;;5007234;28;20870;-65
2023/10/31 06:11:12;;;;;;;11.97;8.97;;;12.40;99.90;;;;;;5001808;28;20484;-65
2023/10/31 06:13:40;;;;;;;10.33;9.23;;;12.50;99.90;;;;;;5003486;28;20488;-65
2023/10/31 06:16:09;;;;;;;9.03;8.17;;;12.40;99.90;;;;;;5006283;28;20469;-65
2023/10/31 06:18:38;;;;;;;9.37;8.47;;;12.40;99.90;;;;;;4994116;28;20492;-65
2023/10/31 06:21:07;;;;;;;8.73;7.83;;;12.40;99.90;;;;;;4995615;28;20984;-65
2023/10/31 06:23:37;;;;;;;9.13;8.10;;;12.50;99.90;;;;;;5003472;28;20492;-65
2023/10/31 06:26:05;;;;;;;8.90;8.00;;;12.40;99.90;;;;;;5004024;28;20563;-66
2023/10/31 06:28:35;;;;;;;9.27;7.80;;;12.40;99.90;;;;;;5001272;28;20620;-65
2023/10/31 06:31:07;;;;;;;9.67;8.77;;;12.40;99.90;;;;;;5006757;28;20478;-65
2023/10/31 06:33:35;;;;;;;9.37;8.47;;;12.40;99.90;;;;;;5003619;28;20499;-65
2023/10/31 06:36:03;;;;;;;9.17;8.27;;;12.50;99.90;;;;;;5002764;28;20562;-65
2023/10/31 06:38:31;;;;;;;9.20;8.30;;;12.40;99.90;;;;;;5006163;28;20573;-65
2023/10/31 06:41:01;;;;;;;9.13;8.20;;;12.50;99.90;;;;;;5001523;28;20982;-65
2023/10/31 06:43:29;;;;;;;9.43;8.43;;;12.50;99.90;;;;;;4999240;28;20503;-65
2023/10/31 06:46:02;;;;;;;9.60;8.67;;;12.40;99.90;;;;;;5005125;28;20476;-65
2023/10/31 06:48:30;;;;;;;8.30;7.50;;;12.50;99.90;;;;;;5004167;28;20468;-68
2023/10/31 06:50:58;;;;;;;10.57;8.50;;;12.50;99.90;;;;;;5006155;28;20566;-65
2023/10/31 06:53:26;;;;;;;9.00;8.10;;;12.50;99.90;;;;;;5002549;28;20527;-65
2023/10/31 06:55:54;;;;;;;9.47;8.47;;;12.50;99.90;;;;;;4998350;28;20468;-65
2023/10/31 06:58:23;;;;;;;9.80;8.80;;;12.50;99.90;;;;;;4982229;28;20471;-62
2023/10/31 07:00:51;;;;;;;10.17;7.60;;;12.50;99.90;;;;;;4996180;28;20480;-65
2023/10/31 07:03:19;;;;;;;8.80;7.93;;;12.50;99.90;;;;;;4996836;28;20488;-65
2023/10/31 07:05:47;;;;;;;8.73;7.90;;;12.50;99.90;;;;;;4996980;28;20475;-65
2023/10/31 07:08:15;;;;;;;8.87;7.97;;;12.50;99.90;;;;;;4998084;28;21004;-65
2023/10/31 07:10:43;;;;;;;9.20;8.00;;;12.50;99.90;;;;;;4998022;28;21368;-65
2023/10/31 07:13:13;;;;;;;9.33;8.40;;;12.50;99.90;;;;;;4994428;28;20484;-65
2023/10/31 07:15:42;;;;;;;9.20;8.30;;;12.50;99.90;;;;;;5002965;28;20575;-65
2023/10/31 07:18:10;;;;;;;8.23;7.43;;;12.50;99.90;;;;;;5000570;28;20468;-63
2023/10/31 07:20:38;;;;;;;7.80;6.70;;;12.50;99.90;;;;;;4996686;28;20488;-66
2023/10/31 07:23:06;;;;;;;7.57;6.20;;;12.50;99.90;;;;;;4995915;28;20514;-66
2023/10/31 07:25:34;;;;;;;7.10;6.40;;;12.50;99.90;;;;;;5000289;28;20480;-66
2023/10/31 07:28:02;;;;;;;5.70;5.20;;;12.60;99.90;;;;;;4993038;28;20475;-65
2023/10/31 07:30:30;;;;;;;4.17;3.77;;;12.60;99.90;;;;;;4998886;28;20475;-66
2023/10/31 07:32:59;;;;;;;4.00;3.60;;;12.60;99.90;;;;;;4997749;28;20880;-65
2023/10/31 07:35:28;;;;;;;3.87;3.50;;;12.70;99.90;;;;;;4993580;28;20844;-65
2023/10/31 07:37:56;;;;;;;4.50;4.10;;;12.70;99.90;;;;;;5003264;28;20476;-67
2023/10/31 07:40:24;;;;;;;5.20;4.70;;;12.70;99.90;;;;;;4999455;28;20990;-66
2023/10/31 07:42:52;;;;;;;5.63;5.10;;;12.70;99.90;;;;;;4993569;28;20492;-65
2023/10/31 07:45:20;;;;;;;6.60;6.00;;;12.70;99.90;;;;;;5001402;28;20473;-66
2023/10/31 07:47:48;;;;;;;8.53;7.70;;;12.80;99.90;;;;;;5004816;28;20500;-68
2023/10/31 07:50:17;;;;;;;9.20;8.40;;;12.70;99.90;;;;;;5005338;28;20476;-66
2023/10/31 07:52:46;;;;;;;9.50;8.03;;;12.80;99.90;;;;;;5005732;28;20488;-65
2023/10/31 07:55:14;;;;;;;8.87;7.97;;;12.80;99.90;;;;;;4988759;28;20987;-66
2023/10/31 07:57:42;;;;;;;10.03;8.33;;;12.70;99.90;;;;;;4984978;28;21051;-66
2023/10/31 08:00:11;;;;;;;8.70;7.90;;;12.70;99.90;;;;;;4981934;28;20595;-64
2023/10/31 08:02:40;;;;;;;8.00;7.23;;;12.60;99.90;;;;;;4984701;28;20499;-65
2023/10/31 08:05:09;;;;;;;6.47;5.87;;;12.50;99.90;;;;;;4967999;28;20469;-65
2023/10/31 08:07:39;;;;;;;4.73;4.37;;;12.50;99.90;;;;;;4970449;28;20485;-65
2023/10/31 08:10:07;;;;;;;3.80;3.50;;;12.40;99.90;;;;;;4971788;28;20616;-65
2023/10/31 08:12:36;;;;;;;2.00;1.80;;;12.40;99.90;;;;;;4963795;28;20503;-63
2023/10/31 08:15:04;;;;;;;1.60;1.50;;;12.30;99.90;;;;;;4967422;28;20489;-65
2023/10/31 08:17:32;;;;;;;1.30;1.20;;;12.20;99.90;;;;;;4966069;23;20606;-69
2023/10/31 08:20:03;;;;;;;2.87;1.37;;;12.20;99.90;;;;;;4937373;28;20500;-64
2023/10/31 08:22:31;;;;;;;1.80;1.53;;;12.10;99.90;;;;;;4963592;28;20578;-64
2023/10/31 08:25:01;;;;;;;2.40;1.30;;;12.10;99.90;;;;;;4960920;28;20547;-62
2023/10/31 08:27:29;;;;;;;1.27;1.03;;;12.00;99.90;;;;;;4956857;28;21086;-64
2023/10/31 08:29:57;;;;;;;2.40;1.00;;;12.00;99.90;;;;;;4969132;28;20584;-63
2023/10/31 08:32:25;;;;;;;1.70;0.80;;;11.90;99.90;;;;;;4973558;28;20564;-65
2023/10/31 08:34:54;;;;;;;1.80;1.00;;;11.90;99.90;;;;;;4974474;28;20486;-65
2023/10/31 08:37:22;;;;;;;1.00;1.00;;;11.80;99.90;;;;;;4967107;28;20473;-65
2023/10/31 08:39:50;;;;;;;0.77;0.77;;;11.80;99.90;;;;;;4965423;28;20497;-65
2023/10/31 08:42:19;;;;;;;0.80;0.80;;;11.80;99.90;;;;;;4966441;28;20593;-65
2023/10/31 08:44:47;;;;;;;0.70;0.70;;;11.80;99.90;;;;;;4966867;28;20999;-65
2023/10/31 08:47:15;;;;;;;0.63;0.63;;;11.80;99.90;;;;;;4969219;28;20487;-63
2023/10/31 09:07:42;;;;;;;1.10;0.73;;;11.80;99.90;;;;;;5306696;23;20653;-65
2023/10/31 09:10:10;;;;;;;1.00;1.00;;;11.80;99.90;;;;;;4995387;28;20497;-66
2023/10/31 09:12:38;;;;;;;1.03;1.03;;;11.80;99.90;;;;;;4986287;28;21245;-67
2023/10/31 09:15:09;;;;;;;1.43;1.33;;;11.80;99.90;;;;;;4986405;28;21043;-66
2023/10/31 09:17:37;;;;;;;1.40;1.17;;;11.80;99.90;;;;;;4988053;28;20591;-66
2023/10/31 09:20:06;;;;;;;1.30;1.20;;;11.70;99.90;;;;;;4989122;28;20528;-66
2023/10/31 09:22:34;;;;;;;1.70;1.30;;;11.70;99.90;;;;;;4989820;23;20617;-66
2023/10/31 09:25:04;;;;;;;1.20;1.10;;;11.70;99.90;;;;;;4936123;28;20510;-66
2023/10/31 09:27:32;;;;;;;1.30;1.20;;;11.70;99.90;;;;;;4934584;28;20502;-65
2023/10/31 09:30:00;;;;;;;1.40;1.23;;;11.70;99.90;;;;;;4932161;28;20498;-65
2023/10/31 09:32:28;;;;;;;1.20;1.10;;;11.60;99.90;;;;;;4942978;28;20588;-65
2023/10/31 09:34:56;;;;;;;1.60;1.03;;;11.60;99.90;;;;;;4936881;28;20576;-66
2023/10/31 09:37:24;;;;;;;0.90;0.70;;;11.60;99.90;;;;;;4929718;28;20918;-65
2023/10/31 09:39:52;;;;;;;0.80;0.63;;;11.50;99.90;;;;;;4926345;28;20493;-63
2023/10/31 09:42:22;;;;;;;0.67;0.60;;;11.50;99.90;;;;;;4937745;28;20640;-65
2023/10/31 09:44:50;;;;;;;0.50;0.50;;;11.50;99.90;;;;;;4938726;28;20605;-63
2023/10/31 09:47:18;;;;;;;0.50;0.50;;;11.50;99.90;;;;;;4937769;28;20478;-64
2023/10/31 09:49:46;;;;;;;0.80;0.57;;;11.50;99.90;;;;;;4943625;28;20499;-64
2023/10/31 09:52:14;;;;;;;1.37;0.53;;;11.40;99.90;;;;;;4929418;28;20489;-66
2023/10/31 09:54:42;;;;;;;0.50;0.50;;;11.30;99.90;;;;;;4945007;28;23502;-66
2023/10/31 09:57:14;;;;;;;0.40;0.30;;;11.20;99.90;;;;;;4942154;28;20505;-66
2023/10/31 09:59:43;;;;;;;0.40;0.30;;;11.10;99.90;;;;;;4939828;28;20870;-65
2023/10/31 10:02:11;;;;;;;0.40;0.40;;;11.10;99.90;;;;;;4940751;28;21310;-64
2023/10/31 10:04:39;;;;;;;0.40;0.40;;;11.00;99.90;;;;;;4937924;28;21164;-65
2023/10/31 10:07:07;;;;;;;0.50;0.50;;;11.00;99.90;;;;;;4940482;28;20484;-65
2023/10/31 10:09:35;;;;;;;0.50;0.50;;;11.00;99.90;;;;;;4936308;28;20537;-63
2023/10/31 10:12:05;;;;;;;0.50;0.50;;;11.00;99.90;;;;;;4938493;28;20862;-64
2023/10/31 10:14:33;;;;;;;0.73;0.40;;;11.00;99.90;;;;;;4934619;28;20976;-65
2023/10/31 10:17:13;;;;;;;0.60;0.50;;;11.00;99.90;;;;;;4942307;28;20482;-63
2023/10/31 10:19:41;;;;;;;0.80;0.60;;;11.00;99.90;;;;;;4934052;28;20837;-64
2023/10/31 10:22:10;;;;;;;1.70;0.90;;;10.90;99.90;;;;;;4938485;28;20561;-65
2023/10/31 10:24:41;;;;;;;1.37;0.70;;;10.90;99.90;;;;;;4935386;28;20479;-66
2023/10/31 10:34:46;;;;;;;0.93;0.90;;;10.80;99.90;;;;;;4949046;28;20465;-64
2023/10/31 10:37:15;;;;;;;1.10;1.00;;;10.80;99.90;;;;;;4932960;28;20513;-63
2023/10/31 10:39:49;;;;;;;0.93;0.83;;;10.80;99.90;;;;;;4922200;28;20490;-63
2023/10/31 10:42:19;;;;;;;1.03;0.93;;;10.70;99.90;;;;;;4929800;28;20596;-64
2023/10/31 10:44:50;;;;;;;0.80;0.80;;;10.80;99.90;;;;;;4924662;28;24118;-63
2023/10/31 10:47:20;;;;;;;0.90;0.90;;;10.80;99.90;;;;;;4919396;28;20613;-63
2023/10/31 10:49:55;;;;;;;1.10;1.00;;;10.80;99.90;;;;;;4927775;28;20501;-62
2023/10/31 10:52:28;;;;;;;0.97;0.90;;;10.90;99.90;;;;;;4922299;28;20932;-63
2023/10/31 10:55:03;;;;;;;2.13;1.50;;;10.80;99.90;;;;;;4930355;28;21011;-63
2023/10/31 10:57:39;;;;;;;1.20;1.10;;;10.80;99.90;;;;;;4924156;28;20586;-65
2023/10/31 11:00:12;;;;;;;2.87;1.00;;;10.80;99.90;;;;;;4938332;28;20568;-63
2023/10/31 11:02:42;;;;;;;1.03;0.97;;;10.80;99.90;;;;;;4929948;28;20501;-64
2023/10/31 11:05:13;;;;;;;1.07;0.97;;;10.80;99.90;;;;;;4924493;28;20565;-64
2023/10/31 11:07:41;;;;;;;1.13;1.00;;;10.70;99.90;;;;;;4918163;28;22604;-63
2023/10/31 11:10:10;;;;;;;1.17;1.17;;;10.70;99.90;;;;;;4917938;28;21126;-64
2023/10/31 11:12:39;;;;;;;2.30;1.10;;;10.80;99.90;;;;;;4920880;28;21112;-63
2023/10/31 11:15:09;;;;;;;1.53;1.30;;;10.80;99.90;;;;;;4923835;28;20617;-63
2023/10/31 11:17:40;;;;;;;1.83;1.30;;;10.80;99.90;;;;;;4937819;28;20590;-63
2023/10/31 11:20:14;;;;;;;1.37;1.20;;;10.70;99.90;;;;;;4909742;28;20486;-63
2023/10/31 11:22:45;;;;;;;2.10;1.60;;;10.70;99.90;;;;;;4931596;28;21212;-66
2023/10/31 11:25:14;;;;;;;1.20;1.20;;;10.70;99.90;;;;;;4935286;28;21258;-66
2023/10/31 11:27:54;;;;;;;1.80;1.43;;;10.70;99.90;;;;;;4939853;28;20477;-66
2023/10/31 11:30:27;;;;;;;1.73;1.50;;;10.70;99.90;;;;;;4927421;28;20998;-64
2023/10/31 11:32:56;;;;;;;2.10;1.83;;;10.70;99.90;;;;;;4922155;28;20624;-66
2023/10/31 11:35:25;;;;;;;2.30;2.10;;;10.70;99.90;;;;;;4928803;28;20475;-66
2023/10/31 11:38:03;;;;;;;1.90;1.80;;;10.70;99.90;;;;;;4936845;28;20984;-64
2023/10/31 11:40:31;;;;;;;2.47;1.80;;;10.60;99.90;;;;;;4942283;28;20558;-65
2023/10/31 11:43:04;;;;;;;2.00;1.90;;;10.70;99.90;;;;;;4942096;28;20557;-64
2023/10/31 11:45:36;;;;;;;1.80;1.70;;;10.70;99.90;;;;;;4939648;28;20485;-63
2023/10/31 11:48:05;;;;;;;1.80;1.70;;;10.70;99.90;;;;;;4934402;28;20481;-66
2023/10/31 11:50:35;;;;;;;1.50;1.37;;;10.80;99.90;;;;;;4936105;28;21070;-63
2023/10/31 11:53:06;;;;;;;1.60;1.50;;;10.80;99.90;;;;;;4932056;28;20496;-63
2023/10/31 11:55:36;;;;;;;1.70;1.60;;;10.80;99.90;;;;;;4936738;28;20466;-64
2023/10/31 11:58:15;;;;;;;1.97;1.87;;;10.90;99.90;;;;;;4931110;28;20509;-64
2023/10/31 12:00:44;;;;;;;1.93;1.83;;;11.00;99.90;;;;;;4939838;28;20537;-64
2023/10/31 12:03:12;;;;;;;1.70;1.60;;;11.00;99.90;;;;;;4937174;28;20495;-64
2023/10/31 12:05:52;;;;;;;2.30;2.07;;;11.00;99.90;;;;;;4938624;28;20474;-64
2023/10/31 12:08:26;;;;;;;2.33;2.07;;;11.00;99.90;;;;;;4950037;28;20498;-63
2023/10/31 12:11:03;;;;;;;2.67;2.43;;;11.10;99.90;;;;;;4927768;28;21393;-64
2023/10/31 12:13:31;;;;;;;2.10;1.90;;;11.30;99.90;;;;;;4936864;28;20486;-64
2023/10/31 12:16:00;;;;;;;2.10;1.80;;;11.80;99.90;;;;;;4931856;28;20481;-65
2023/10/31 12:18:28;;;;;;;2.60;1.90;;;12.10;99.90;;;;;;4935692;28;20976;-66
2023/10/31 12:20:58;;;;;;;0.97;0.97;;;12.60;99.90;;;;;;4912131;28;20555;-63
2023/10/31 12:23:26;;;;;;;1.30;1.20;;;12.70;99.90;;;;;;4924120;28;20498;-64
2023/10/31 12:25:55;;;;;;;1.30;1.20;;;12.60;99.90;;;;;;4925511;28;20469;-63
2023/10/31 12:28:24;;;;;;;1.17;1.07;;;12.70;99.90;;;;;;4910353;28;20502;-65
2023/10/31 12:30:54;;;;;;;1.50;1.40;;;13.00;99.90;;;;;;4919997;28;20486;-65
2023/10/31 12:33:24;;;;;;;1.00;0.90;;;13.10;99.90;;;;;;4916659;28;20661;-64
2023/10/31 12:35:57;;;;;;;1.10;1.00;;;13.00;99.90;;;;;;4924163;28;21009;-64
2023/10/31 12:38:27;;;;;;;1.20;0.90;;;12.80;99.90;;;;;;4925528;28;20608;-65
2023/10/31 12:40:58;;;;;;;1.43;0.90;;;12.60;99.90;;;;;;4931051;28;20844;-62
2023/10/31 12:43:27;;;;;;;1.47;0.70;;;12.40;99.90;;;;;;4929449;28;20905;-63
2023/10/31 12:45:55;;;;;;;0.80;0.80;;;12.30;99.90;;;;;;4933363;28;20538;-62
2023/10/31 12:48:26;;;;;;;0.70;0.63;;;12.10;99.90;;;;;;4922311;28;20588;-62
2023/10/31 12:51:08;;;;;;;1.03;0.70;;;12.10;99.90;;;;;;4922973;28;21032;-62
2023/10/31 12:53:38;;;;;;;0.80;0.80;;;12.10;99.90;;;;;;4931176;28;20962;-62
2023/10/31 12:56:07;;;;;;;1.00;0.90;;;12.10;99.90;;;;;;4927711;28;20486;-63
2023/10/31 12:58:36;;;;;;;0.60;0.60;;;12.10;99.90;;;;;;4928386;28;21134;-63
2023/10/31 13:01:12;;;;;;;0.90;0.70;;;12.00;99.90;;;;;;4939062;28;20990;-63
2023/10/31 13:03:50;;;;;;;2.00;1.17;;;11.90;99.90;;;;;;4942554;28;20635;-63
2023/10/31 13:06:19;;;;;;;1.63;1.40;;;11.80;99.90;;;;;;4935658;28;20563;-63
2023/10/31 13:08:48;;;;;;;2.67;1.83;;;11.80;99.90;;;;;;4938473;28;21019;-63
2023/10/31 13:11:17;;;;;;;3.43;1.80;;;11.80;99.90;;;;;;4933893;28;20486;-62
2023/10/31 13:13:45;;;;;;;1.10;1.00;;;11.90;99.90;;;;;;4943491;28;21104;-63
2023/10/31 13:16:13;;;;;;;4.30;2.80;;;11.90;99.90;;;;;;4947791;28;20795;-63
2023/10/31 13:18:41;;;;;;;1.67;1.50;;;11.80;99.90;;;;;;4941129;28;20550;-63
2023/10/31 13:21:10;;;;;;;1.20;1.10;;;11.80;99.90;;;;;;4942302;28;20482;-63